Time;durP1;ratioP1;P1;durP2;ratioP2;P2;SDS_P1;SDS_P2;PMS_P1;PMS_P2;Temp;Humidity;BMP_temperature;BMP_pressure;BME280_temperature;BME280_humidity;BME280_pressure;Samples;Min_cycle;Max_cycle;Signal;HPM_P1;HPM_P2
2021/05/03 00:01:19;;;;;;;7.10;4.20;;;7.10;99.90;;;;;;6072322;23;20416;-66
2021/05/03 00:03:46;;;;;;;5.13;3.97;;;7.10;99.90;;;;;;6072315;23;20420;-66
2021/05/03 00:06:12;;;;;;;4.73;3.90;;;7.10;99.90;;;;;;6072700;23;20420;-66
2021/05/03 00:08:38;;;;;;;4.23;3.77;;;7.10;99.90;;;;;;6072347;23;20424;-66
2021/05/03 00:11:05;;;;;;;4.00;3.60;;;7.10;99.90;;;;;;6072326;23;20444;-66
2021/05/03 00:13:34;;;;;;;4.10;3.70;;;7.20;99.90;;;;;;6072660;23;20435;-66
2021/05/03 00:16:01;;;;;;;6.47;3.83;;;7.20;99.90;;;;;;6072473;23;20428;-66
2021/05/03 00:18:27;;;;;;;5.97;4.00;;;7.20;99.90;;;;;;6072866;23;20431;-67
2021/05/03 00:20:54;;;;;;;5.03;4.10;;;7.20;99.90;;;;;;6072549;23;20480;-67
2021/05/03 00:23:20;;;;;;;4.17;3.83;;;7.20;99.90;;;;;;6072387;23;20554;-67
2021/05/03 00:25:46;;;;;;;5.27;4.13;;;7.20;99.90;;;;;;6072869;23;20420;-67
2021/05/03 00:28:13;;;;;;;4.70;4.10;;;7.20;99.90;;;;;;6076638;23;20437;-67
2021/05/03 00:30:39;;;;;;;4.00;3.60;;;7.20;99.90;;;;;;6073823;23;20440;-66
2021/05/03 00:33:06;;;;;;;4.40;4.00;;;7.20;99.90;;;;;;6072204;23;20479;-67
2021/05/03 00:35:33;;;;;;;7.77;4.20;;;7.20;99.90;;;;;;6072325;23;20431;-67
2021/05/03 00:38:01;;;;;;;4.10;3.60;;;7.20;99.90;;;;;;6073025;23;20438;-66
2021/05/03 00:40:28;;;;;;;4.03;3.63;;;7.20;99.90;;;;;;6072183;23;20435;-66
2021/05/03 00:42:54;;;;;;;3.67;3.20;;;7.20;99.90;;;;;;6071833;23;20921;-66
2021/05/03 00:45:21;;;;;;;4.83;3.80;;;7.20;99.90;;;;;;6072678;23;20424;-66
2021/05/03 00:47:47;;;;;;;4.33;3.80;;;7.20;99.90;;;;;;6072366;23;20507;-66
2021/05/03 00:50:17;;;;;;;9.03;3.60;;;7.20;99.90;;;;;;6072625;23;20440;-67
2021/05/03 00:52:43;;;;;;;6.60;3.80;;;7.20;99.90;;;;;;6072580;23;20428;-67
2021/05/03 00:55:11;;;;;;;9.30;3.90;;;7.20;99.90;;;;;;6072506;23;20424;-65
2021/05/03 00:57:38;;;;;;;7.50;3.80;;;7.20;99.90;;;;;;6072436;23;20424;-65
2021/05/03 01:00:09;;;;;;;3.80;3.50;;;7.20;99.90;;;;;;6072021;23;20412;-65
2021/05/03 01:02:35;;;;;;;5.53;3.43;;;7.20;99.90;;;;;;6072525;23;20405;-67
2021/05/03 01:05:02;;;;;;;4.30;3.57;;;7.20;99.90;;;;;;6072734;23;20790;-65
2021/05/03 01:07:29;;;;;;;9.30;4.03;;;7.10;99.90;;;;;;6071914;23;20432;-66
2021/05/03 01:09:55;;;;;;;5.20;3.30;;;7.10;99.90;;;;;;6071954;23;20444;-66
2021/05/03 01:12:21;;;;;;;7.57;3.70;;;7.20;99.90;;;;;;6072517;23;20424;-66
2021/05/03 01:14:48;;;;;;;3.90;3.53;;;7.20;99.90;;;;;;6071126;23;20420;-66
2021/05/03 01:17:14;;;;;;;6.00;3.27;;;7.20;99.90;;;;;;6071994;23;20770;-66
2021/05/03 01:19:41;;;;;;;5.57;3.37;;;7.10;99.90;;;;;;6071548;23;20424;-66
2021/05/03 01:22:08;;;;;;;4.80;3.57;;;7.20;99.90;;;;;;6072472;23;20421;-66
2021/05/03 01:24:34;;;;;;;8.30;3.53;;;7.20;99.90;;;;;;6072260;23;20448;-66
2021/05/03 01:27:00;;;;;;;4.30;3.40;;;7.20;99.90;;;;;;6072110;23;20610;-66
2021/05/03 01:29:27;;;;;;;9.27;3.67;;;7.20;99.90;;;;;;6071716;23;20483;-65
2021/05/03 01:31:54;;;;;;;4.80;3.50;;;7.20;99.90;;;;;;6072065;23;20420;-66
2021/05/03 01:34:20;;;;;;;8.90;3.00;;;7.20;99.90;;;;;;6072110;23;20459;-65
2021/05/03 01:36:48;;;;;;;8.53;3.33;;;7.20;99.90;;;;;;6072090;23;20420;-65
2021/05/03 01:39:16;;;;;;;4.90;3.17;;;7.20;99.90;;;;;;6072916;23;20424;-66
2021/05/03 01:41:43;;;;;;;5.70;3.60;;;7.20;99.90;;;;;;6073330;23;20424;-66
2021/05/03 01:44:12;;;;;;;4.00;2.83;;;7.20;99.90;;;;;;6072981;23;20420;-66
2021/05/03 01:46:39;;;;;;;7.87;3.10;;;7.10;99.90;;;;;;6072323;23;20420;-66
2021/05/03 01:49:08;;;;;;;5.20;3.20;;;7.10;99.90;;;;;;6072009;23;20428;-66
2021/05/03 01:51:37;;;;;;;6.00;3.53;;;7.00;99.90;;;;;;6072365;23;20444;-66
2021/05/03 01:54:05;;;;;;;6.10;3.40;;;6.90;99.90;;;;;;6072002;23;20416;-66
2021/05/03 01:56:34;;;;;;;6.03;4.13;;;6.90;99.90;;;;;;6072994;23;20439;-66
2021/05/03 01:59:01;;;;;;;6.10;4.20;;;6.80;99.90;;;;;;6072464;23;20420;-66
2021/05/03 02:01:27;;;;;;;7.03;4.40;;;6.70;99.90;;;;;;6072596;23;20428;-66
2021/05/03 02:03:53;;;;;;;5.53;4.43;;;6.60;99.90;;;;;;6072054;23;20424;-67
2021/05/03 02:06:19;;;;;;;11.70;4.40;;;6.60;99.90;;;;;;6072181;23;20428;-66
2021/05/03 02:08:47;;;;;;;8.07;4.30;;;6.60;99.90;;;;;;6071386;23;20748;-66
2021/05/03 02:11:13;;;;;;;6.40;4.37;;;6.60;99.90;;;;;;6071842;23;20495;-66
2021/05/03 02:13:43;;;;;;;8.23;4.27;;;6.50;99.90;;;;;;6072230;23;20432;-67
2021/05/03 02:16:09;;;;;;;5.17;3.73;;;6.50;99.90;;;;;;6072469;23;20757;-66
2021/05/03 02:18:35;;;;;;;6.43;4.30;;;6.50;99.90;;;;;;6072256;23;20719;-66
2021/05/03 02:21:02;;;;;;;5.60;5.00;;;6.50;99.90;;;;;;6071894;23;20424;-66
2021/05/03 02:23:31;;;;;;;7.87;4.13;;;6.50;99.90;;;;;;6071566;23;20459;-66
2021/05/03 02:25:57;;;;;;;6.30;4.03;;;6.50;99.90;;;;;;6072015;23;20424;-66
2021/05/03 02:28:24;;;;;;;7.73;3.90;;;6.50;99.90;;;;;;6071655;23;20421;-66
2021/05/03 02:30:51;;;;;;;6.10;4.90;;;6.50;99.90;;;;;;6071529;23;20444;-66
2021/05/03 02:33:17;;;;;;;7.10;4.30;;;6.40;99.90;;;;;;6071852;23;20456;-67
2021/05/03 02:35:43;;;;;;;9.47;4.00;;;6.40;99.90;;;;;;6071795;23;20424;-67
2021/05/03 02:38:09;;;;;;;11.17;4.00;;;6.40;99.90;;;;;;6071917;23;20420;-67
2021/05/03 02:40:36;;;;;;;7.20;4.53;;;6.30;99.90;;;;;;6071814;23;20503;-67
2021/05/03 02:43:04;;;;;;;9.63;4.83;;;6.30;99.90;;;;;;6072749;23;20479;-67
2021/05/03 02:45:33;;;;;;;5.07;4.33;;;6.20;99.90;;;;;;6071715;23;20431;-67
2021/05/03 02:48:01;;;;;;;6.10;4.40;;;6.20;99.90;;;;;;6071379;23;20416;-67
2021/05/03 02:50:27;;;;;;;6.80;4.50;;;6.10;99.90;;;;;;6071523;23;20779;-67
2021/05/03 02:52:57;;;;;;;6.80;4.80;;;6.10;99.90;;;;;;6071324;23;20906;-66
2021/05/03 02:55:24;;;;;;;5.80;4.90;;;6.00;99.90;;;;;;6072171;23;20437;-66
2021/05/03 02:57:51;;;;;;;6.20;4.50;;;6.00;99.90;;;;;;6071743;23;20692;-66
2021/05/03 03:00:23;;;;;;;5.23;4.30;;;5.90;99.90;;;;;;6071706;23;20416;-65
2021/05/03 03:02:49;;;;;;;5.80;4.10;;;5.90;99.90;;;;;;6072018;23;20405;-66
2021/05/03 03:05:16;;;;;;;5.13;4.50;;;5.80;99.90;;;;;;6071227;23;20420;-67
2021/05/03 03:07:42;;;;;;;7.20;4.13;;;5.80;99.90;;;;;;6071434;23;20886;-66
2021/05/03 03:10:09;;;;;;;8.17;5.10;;;5.80;99.90;;;;;;6071338;23;20456;-67
2021/05/03 03:12:36;;;;;;;5.47;4.07;;;5.70;99.90;;;;;;6071520;23;20431;-67
2021/05/03 03:15:03;;;;;;;7.30;4.47;;;5.70;99.90;;;;;;6071600;23;20482;-67
2021/05/03 03:17:29;;;;;;;6.93;4.40;;;5.70;99.90;;;;;;6072082;23;20420;-67
2021/05/03 03:19:55;;;;;;;6.47;3.83;;;5.70;99.90;;;;;;6072586;23;20706;-67
2021/05/03 03:22:22;;;;;;;4.33;3.93;;;5.70;99.90;;;;;;6073703;23;20898;-66
2021/05/03 03:24:49;;;;;;;5.87;4.00;;;5.70;99.90;;;;;;6074637;23;20471;-66
2021/05/03 03:27:15;;;;;;;8.03;3.97;;;5.70;99.90;;;;;;6077110;23;20427;-67
2021/05/03 03:29:41;;;;;;;9.83;4.80;;;5.70;99.90;;;;;;6074093;23;20497;-67
2021/05/03 03:32:08;;;;;;;6.60;4.87;;;5.70;99.90;;;;;;6074225;23;20479;-66
2021/05/03 03:34:34;;;;;;;4.20;3.70;;;5.70;99.90;;;;;;6073254;23;20421;-67
2021/05/03 03:37:00;;;;;;;4.23;3.83;;;5.70;99.90;;;;;;6073962;23;20420;-67
2021/05/03 03:39:27;;;;;;;11.00;5.00;;;5.70;99.90;;;;;;6074476;23;20771;-66
2021/05/03 03:41:53;;;;;;;4.57;4.13;;;5.80;99.90;;;;;;6073307;23;20420;-67
2021/05/03 03:44:20;;;;;;;6.20;4.47;;;5.80;99.90;;;;;;6073326;23;20431;-68
2021/05/03 03:46:46;;;;;;;5.00;4.30;;;5.70;99.90;;;;;;6073509;23;20717;-66
2021/05/03 03:49:12;;;;;;;4.37;3.97;;;5.70;99.90;;;;;;6073279;23;20490;-66
2021/05/03 03:51:38;;;;;;;5.40;3.77;;;5.70;99.90;;;;;;6072515;23;20913;-67
2021/05/03 03:54:06;;;;;;;5.50;3.77;;;5.70;99.90;;;;;;6072728;23;20716;-66
2021/05/03 03:56:33;;;;;;;4.37;3.73;;;5.70;99.90;;;;;;6073105;23;20480;-66
2021/05/03 03:58:59;;;;;;;4.00;3.20;;;5.70;99.90;;;;;;6074103;23;20432;-66
2021/05/03 04:01:26;;;;;;;6.30;4.07;;;5.60;99.90;;;;;;6073762;23;20922;-66
2021/05/03 04:03:55;;;;;;;4.00;3.70;;;5.60;99.90;;;;;;6073089;23;20568;-66
2021/05/03 04:06:30;;;;;;;7.07;4.80;;;5.60;99.90;;;;;;6072025;23;20435;-65
2021/05/03 04:09:04;;;;;;;5.40;3.67;;;5.50;99.90;;;;;;6073930;23;20423;-65
2021/05/03 04:11:47;;;;;;;8.03;3.90;;;5.50;99.90;;;;;;6072867;23;20738;-65
2021/05/03 04:21:03;;;;;;;8.07;4.40;;;5.50;99.90;;;;;;6074085;23;20703;-67
2021/05/03 04:25:31;;;;;;;4.93;3.90;;;5.40;99.90;;;;;;6082339;23;20407;-66
2021/05/03 04:27:57;;;;;;;6.87;3.90;;;5.40;99.90;;;;;;6080895;23;20415;-66
2021/05/03 04:30:24;;;;;;;5.90;4.20;;;5.40;99.90;;;;;;6074726;23;20445;-67
2021/05/03 04:32:52;;;;;;;6.17;4.00;;;5.40;99.90;;;;;;6074527;23;20486;-66
2021/05/03 04:35:18;;;;;;;6.20;4.13;;;5.40;99.90;;;;;;6075778;23;20484;-67
2021/05/03 04:37:44;;;;;;;7.37;3.70;;;5.40;99.90;;;;;;6075804;23;20474;-66
2021/05/03 04:40:12;;;;;;;5.10;4.27;;;5.40;99.90;;;;;;6073833;23;20420;-66
2021/05/03 04:42:39;;;;;;;5.93;4.00;;;5.40;99.90;;;;;;6078502;23;20443;-66
2021/05/03 04:45:06;;;;;;;9.23;3.70;;;5.40;99.90;;;;;;6073310;23;20424;-66
2021/05/03 04:47:33;;;;;;;5.23;4.20;;;5.40;99.90;;;;;;6073903;23;20447;-66
2021/05/03 04:50:01;;;;;;;4.50;4.10;;;5.50;99.90;;;;;;6072692;23;20440;-66
2021/05/03 04:52:28;;;;;;;4.20;3.73;;;5.50;99.90;;;;;;6073336;23;20423;-66
2021/05/03 04:54:54;;;;;;;8.53;4.73;;;5.50;99.90;;;;;;6073115;23;20440;-65
2021/05/03 04:57:20;;;;;;;5.23;3.97;;;5.50;99.90;;;;;;6072945;23;20425;-65
2021/05/03 04:59:48;;;;;;;12.73;4.60;;;5.60;99.90;;;;;;6073057;23;20420;-65
2021/05/03 05:02:14;;;;;;;4.40;4.00;;;5.60;99.90;;;;;;6072553;23;20535;-66
2021/05/03 05:04:41;;;;;;;21.13;4.80;;;5.60;99.90;;;;;;6073053;23;20487;-66
2021/05/03 05:07:08;;;;;;;4.30;3.70;;;5.60;99.90;;;;;;6073160;23;20420;-65
2021/05/03 05:09:36;;;;;;;4.33;3.80;;;5.70;99.90;;;;;;6074184;23;20576;-66
2021/05/03 05:12:03;;;;;;;5.37;4.47;;;5.70;99.90;;;;;;6073458;23;20452;-66
2021/05/03 05:14:29;;;;;;;3.53;3.23;;;5.70;99.90;;;;;;6073757;23;20695;-66
2021/05/03 05:16:56;;;;;;;6.63;4.47;;;5.70;99.90;;;;;;6071818;23;20420;-65
2021/05/03 05:19:23;;;;;;;4.23;3.80;;;5.80;99.90;;;;;;6072414;23;20431;-65
2021/05/03 05:21:50;;;;;;;4.80;4.03;;;5.70;99.90;;;;;;6073187;23;20417;-65
2021/05/03 05:24:16;;;;;;;6.10;3.90;;;5.80;99.90;;;;;;6072663;23;20444;-65
2021/05/03 05:26:42;;;;;;;6.30;4.27;;;5.80;99.90;;;;;;6072443;23;20709;-65
2021/05/03 05:29:09;;;;;;;5.67;4.53;;;5.80;99.90;;;;;;6081589;23;20419;-66
2021/05/03 05:31:35;;;;;;;4.80;3.70;;;5.80;99.90;;;;;;6072261;23;20513;-65
2021/05/03 05:34:01;;;;;;;4.13;3.70;;;5.80;99.90;;;;;;6073200;23;20421;-66
2021/05/03 05:36:28;;;;;;;4.60;3.67;;;5.80;99.90;;;;;;6072827;23;20424;-66
2021/05/03 05:38:55;;;;;;;5.33;3.90;;;5.70;99.90;;;;;;6073083;23;20420;-66
2021/05/03 05:41:22;;;;;;;11.53;4.70;;;5.70;99.90;;;;;;6072844;23;20471;-65
2021/05/03 05:43:48;;;;;;;6.87;3.60;;;5.70;99.90;;;;;;6072957;23;20715;-65
2021/05/03 05:46:18;;;;;;;5.60;4.27;;;5.60;99.90;;;;;;6072949;23;20902;-66
2021/05/03 05:48:47;;;;;;;5.13;3.70;;;5.60;99.90;;;;;;6072447;23;20427;-65
2021/05/03 05:51:13;;;;;;;5.13;3.70;;;5.70;99.90;;;;;;6071975;23;20451;-66
2021/05/03 05:53:40;;;;;;;5.77;3.53;;;5.70;99.90;;;;;;6072101;23;20424;-66
2021/05/03 05:56:07;;;;;;;6.53;3.67;;;5.70;99.90;;;;;;6073704;23;20770;-68
2021/05/03 05:58:34;;;;;;;5.87;4.03;;;5.70;99.90;;;;;;6087060;23;20424;-69
2021/05/03 06:01:01;;;;;;;6.73;4.10;;;5.70;99.90;;;;;;6091221;23;20416;-70
2021/05/03 06:03:28;;;;;;;4.87;4.03;;;5.70;99.90;;;;;;6092224;23;20404;-69
2021/05/03 06:05:56;;;;;;;7.03;4.97;;;5.70;99.90;;;;;;6102827;23;20440;-69
2021/05/03 06:08:23;;;;;;;4.60;4.20;;;5.80;99.90;;;;;;6100316;23;20430;-70
2021/05/03 06:10:49;;;;;;;9.10;4.50;;;5.80;99.90;;;;;;6101138;23;20440;-69
2021/05/03 06:13:16;;;;;;;5.43;4.33;;;5.80;99.90;;;;;;6091239;23;20576;-69
2021/05/03 06:15:42;;;;;;;6.37;4.07;;;5.90;99.90;;;;;;6091566;23;20488;-69
2021/05/03 06:18:09;;;;;;;4.67;3.53;;;6.00;99.90;;;;;;6101058;23;20436;-68
2021/05/03 06:20:36;;;;;;;5.40;3.83;;;6.10;99.90;;;;;;6092611;23;20413;-69
2021/05/03 06:23:04;;;;;;;4.10;3.20;;;6.20;99.90;;;;;;6092912;23;20706;-69
2021/05/03 06:25:31;;;;;;;4.73;3.67;;;6.30;99.90;;;;;;6100178;23;20428;-68
2021/05/03 06:27:57;;;;;;;7.57;3.93;;;6.30;99.90;;;;;;6098333;23;20405;-68
2021/05/03 06:30:25;;;;;;;4.37;3.47;;;6.30;99.90;;;;;;6097922;23;20440;-68
2021/05/03 06:32:53;;;;;;;5.40;4.27;;;6.30;99.90;;;;;;6090778;23;20431;-69
2021/05/03 06:35:21;;;;;;;4.23;3.17;;;6.30;99.90;;;;;;6090112;23;20420;-69
2021/05/03 06:37:47;;;;;;;4.50;3.57;;;6.30;99.90;;;;;;6100221;23;20423;-69
2021/05/03 06:40:14;;;;;;;3.77;3.40;;;6.40;99.90;;;;;;6089083;23;20416;-69
2021/05/03 06:42:41;;;;;;;5.83;3.63;;;6.50;99.90;;;;;;6097575;23;20582;-69
2021/05/03 06:45:08;;;;;;;4.60;3.53;;;6.50;99.90;;;;;;6088676;23;20453;-70
2021/05/03 06:47:36;;;;;;;4.27;3.20;;;6.60;99.90;;;;;;6089308;23;20420;-69
2021/05/03 06:50:03;;;;;;;6.83;3.50;;;6.70;99.90;;;;;;6088088;23;20444;-69
2021/05/03 06:52:30;;;;;;;3.67;3.37;;;6.70;99.90;;;;;;6100234;23;20495;-69
2021/05/03 06:54:56;;;;;;;4.43;3.10;;;6.80;99.90;;;;;;6099548;23;20472;-69
2021/05/03 06:57:22;;;;;;;4.83;3.20;;;6.80;99.90;;;;;;6092348;23;20485;-68
2021/05/03 06:59:51;;;;;;;6.83;3.20;;;6.90;99.90;;;;;;6094136;23;20408;-69
2021/05/03 07:02:18;;;;;;;4.47;3.63;;;7.00;99.90;;;;;;6093207;23;20416;-70
2021/05/03 07:04:45;;;;;;;3.30;3.00;;;7.10;99.90;;;;;;6068387;23;20424;-68
2021/05/03 07:07:13;;;;;;;4.50;2.90;;;7.20;99.90;;;;;;6102890;23;20405;-69
2021/05/03 07:09:39;;;;;;;5.70;2.67;;;7.40;99.90;;;;;;6093547;23;20431;-69
2021/05/03 07:12:08;;;;;;;8.93;2.77;;;7.60;99.90;;;;;;6091421;23;20444;-69
2021/05/03 07:14:35;;;;;;;6.27;3.37;;;7.60;99.90;;;;;;6093903;23;20416;-68
2021/05/03 07:17:04;;;;;;;4.10;2.27;;;7.70;99.90;;;;;;6093805;23;20794;-69
2021/05/03 07:19:30;;;;;;;4.90;3.07;;;7.90;99.90;;;;;;6093816;23;20442;-68
2021/05/03 07:21:58;;;;;;;4.33;2.67;;;8.00;99.90;;;;;;6092486;23;20416;-68
2021/05/03 07:24:24;;;;;;;3.23;2.67;;;8.00;99.90;;;;;;6091968;23;20500;-68
2021/05/03 07:26:51;;;;;;;2.30;2.10;;;8.00;99.90;;;;;;6090450;23;20424;-68
2021/05/03 07:29:17;;;;;;;4.30;2.73;;;7.80;99.90;;;;;;6088907;23;20416;-68
2021/05/03 07:31:44;;;;;;;6.10;2.77;;;7.60;99.90;;;;;;6088555;23;20519;-68
2021/05/03 07:34:10;;;;;;;4.67;3.60;;;7.50;99.90;;;;;;6090392;23;20432;-69
2021/05/03 07:36:36;;;;;;;6.50;4.13;;;7.40;99.90;;;;;;6090148;23;20420;-69
2021/05/03 07:39:05;;;;;;;11.30;3.67;;;7.30;99.90;;;;;;6091390;23;20423;-69
2021/05/03 07:41:32;;;;;;;7.13;3.90;;;7.30;99.90;;;;;;6092272;23;20444;-69
2021/05/03 07:43:58;;;;;;;5.10;2.70;;;7.40;99.90;;;;;;6086798;23;20715;-66
2021/05/03 07:46:25;;;;;;;4.13;3.30;;;7.40;99.90;;;;;;6073622;23;20421;-67
2021/05/03 07:48:51;;;;;;;5.40;2.70;;;7.40;99.90;;;;;;6071824;23;20420;-68
2021/05/03 07:51:18;;;;;;;4.50;2.73;;;7.50;99.90;;;;;;6071717;23;20451;-68
2021/05/03 07:53:44;;;;;;;3.47;2.77;;;7.60;99.90;;;;;;6072079;23;20716;-68
2021/05/03 07:56:14;;;;;;;3.33;2.90;;;7.70;99.90;;;;;;6072409;23;20428;-68
2021/05/03 07:58:41;;;;;;;3.47;2.80;;;7.90;99.90;;;;;;6072126;23;20412;-67
2021/05/03 08:01:07;;;;;;;5.30;2.93;;;8.00;99.90;;;;;;6071533;23;20416;-68
2021/05/03 08:03:36;;;;;;;3.03;2.73;;;8.00;99.90;;;;;;6071069;23;20461;-67
2021/05/03 08:06:03;;;;;;;2.77;2.20;;;8.00;99.90;;;;;;6071099;23;20447;-68
2021/05/03 08:08:30;;;;;;;3.17;2.20;;;8.10;99.90;;;;;;6071553;23;20428;-68
2021/05/03 08:10:56;;;;;;;3.87;3.17;;;8.10;99.90;;;;;;6071366;23;20448;-67
2021/05/03 08:13:26;;;;;;;2.47;2.27;;;8.20;99.90;;;;;;6072018;23;20488;-68
2021/05/03 08:15:53;;;;;;;3.40;2.13;;;8.20;99.90;;;;;;6071564;23;20479;-68
2021/05/03 08:18:20;;;;;;;4.80;2.47;;;8.20;99.90;;;;;;6071628;23;20507;-67
2021/05/03 08:20:46;;;;;;;3.17;2.30;;;8.20;99.90;;;;;;6071064;23;20424;-68
2021/05/03 08:23:18;;;;;;;5.20;2.20;;;8.30;99.90;;;;;;6072026;23;20478;-68
2021/05/03 08:25:45;;;;;;;3.30;2.27;;;8.30;99.90;;;;;;6081700;23;20397;-69
2021/05/03 08:28:11;;;;;;;2.40;2.20;;;8.40;99.90;;;;;;6071319;23;20430;-68
2021/05/03 08:30:38;;;;;;;8.13;3.37;;;8.40;99.90;;;;;;6076581;23;20441;-69
2021/05/03 08:33:05;;;;;;;4.83;2.60;;;8.50;99.90;;;;;;6101624;23;20407;-69
2021/05/03 08:35:32;;;;;;;2.90;2.03;;;8.60;99.90;;;;;;6087988;23;20892;-69
2021/05/03 08:37:58;;;;;;;3.60;2.10;;;8.60;99.90;;;;;;6091789;23;20692;-68
2021/05/03 08:40:25;;;;;;;3.20;2.00;;;8.60;99.90;;;;;;6091651;23;20744;-68
2021/05/03 08:42:51;;;;;;;3.67;2.83;;;8.70;99.90;;;;;;6091214;23;20416;-69
2021/05/03 08:45:17;;;;;;;2.40;2.20;;;8.80;99.90;;;;;;6091364;23;20425;-70
2021/05/03 08:47:58;;;;;;;4.80;1.77;;;8.80;99.90;;;;;;6093202;23;20447;-69
2021/05/03 08:50:32;;;;;;;1.50;1.37;;;8.90;99.90;;;;;;6102217;23;20433;-68
2021/05/03 08:52:58;;;;;;;2.40;1.50;;;9.00;99.90;;;;;;6102025;23;20413;-69
2021/05/03 08:55:25;;;;;;;3.57;2.07;;;9.10;99.90;;;;;;6101671;23;20855;-68
2021/05/03 08:57:52;;;;;;;2.87;1.97;;;9.10;99.90;;;;;;6091674;23;20451;-69
2021/05/03 09:00:19;;;;;;;3.03;2.53;;;9.20;99.90;;;;;;6091334;23;20551;-67
2021/05/03 09:02:47;;;;;;;2.83;1.90;;;9.20;99.90;;;;;;6071339;23;20693;-66
2021/05/03 09:05:14;;;;;;;2.70;2.40;;;9.20;99.90;;;;;;6072506;23;20432;-68
2021/05/03 09:07:47;;;;;;;2.90;2.17;;;9.10;99.90;;;;;;6072657;23;20433;-67
2021/05/03 09:10:14;;;;;;;2.63;1.87;;;9.10;99.90;;;;;;6073161;23;20405;-67
2021/05/03 09:12:40;;;;;;;2.90;1.70;;;9.10;99.90;;;;;;6072654;23;20428;-65
2021/05/03 09:15:08;;;;;;;2.80;1.80;;;9.10;99.90;;;;;;6084935;23;20490;-69
2021/05/03 09:17:35;;;;;;;2.50;1.70;;;9.20;99.90;;;;;;6090490;23;20421;-69
2021/05/03 09:20:06;;;;;;;1.83;1.40;;;9.30;99.90;;;;;;6100352;23;20488;-69
2021/05/03 09:22:37;;;;;;;2.40;1.30;;;9.40;99.90;;;;;;6101426;23;20405;-68
2021/05/03 09:25:18;;;;;;;2.67;1.40;;;9.40;99.90;;;;;;6100984;23;20506;-68
2021/05/03 09:27:45;;;;;;;1.83;1.57;;;9.50;99.90;;;;;;6090649;23;20428;-69
2021/05/03 09:30:13;;;;;;;2.27;1.40;;;9.70;99.90;;;;;;6099437;23;20424;-70
2021/05/03 09:32:39;;;;;;;3.13;1.60;;;9.70;99.90;;;;;;6078519;23;20739;-68
2021/05/03 09:35:07;;;;;;;2.00;1.80;;;9.70;99.90;;;;;;6071425;23;20416;-68
2021/05/03 09:37:35;;;;;;;1.70;1.60;;;9.50;99.90;;;;;;6073480;23;20427;-71
2021/05/03 09:40:08;;;;;;;3.80;1.70;;;9.40;99.90;;;;;;6091484;23;20444;-69
2021/05/03 09:42:48;;;;;;;4.80;1.50;;;9.30;99.90;;;;;;6100825;23;20702;-68
2021/05/03 09:45:17;;;;;;;2.27;1.77;;;9.30;99.90;;;;;;6090949;23;20432;-69
2021/05/03 09:47:49;;;;;;;3.47;1.53;;;9.30;99.90;;;;;;6101199;23;20444;-70
2021/05/03 09:50:19;;;;;;;3.77;1.77;;;9.40;99.90;;;;;;6100378;23;20407;-68
2021/05/03 09:53:07;;;;;;;1.93;1.50;;;9.60;99.90;;;;;;6100097;23;20499;-69
2021/05/03 09:55:36;;;;;;;2.70;2.07;;;9.80;99.90;;;;;;6090780;23;20397;-69
2021/05/03 09:58:07;;;;;;;1.83;1.50;;;9.90;99.90;;;;;;6091075;23;20417;-69
2021/05/03 10:00:36;;;;;;;3.20;2.13;;;9.80;99.90;;;;;;6087272;23;20441;-65
2021/05/03 10:03:22;;;;;;;2.93;1.50;;;9.80;99.90;;;;;;6078375;23;20416;-65
2021/05/03 10:05:50;;;;;;;2.13;1.63;;;9.90;99.90;;;;;;6080677;23;20444;-66
2021/05/03 10:08:19;;;;;;;1.90;1.47;;;10.00;99.90;;;;;;6093392;23;20499;-69
2021/05/03 10:10:49;;;;;;;1.73;1.63;;;9.90;99.90;;;;;;6097992;23;20463;-69
2021/05/03 10:13:16;;;;;;;1.83;1.50;;;9.90;99.90;;;;;;6087893;23;20468;-69
2021/05/03 10:15:42;;;;;;;2.00;1.47;;;9.90;99.90;;;;;;6087874;23;20415;-69
2021/05/03 10:18:11;;;;;;;2.33;1.37;;;10.10;99.90;;;;;;6086815;23;20491;-69
2021/05/03 10:20:37;;;;;;;2.70;1.40;;;10.20;99.90;;;;;;6084489;23;20448;-68
2021/05/03 10:23:04;;;;;;;1.47;1.20;;;10.20;99.90;;;;;;6070548;23;20775;-69
2021/05/03 10:25:31;;;;;;;2.40;1.33;;;10.20;99.90;;;;;;6070693;23;20404;-68
2021/05/03 10:27:59;;;;;;;3.13;1.70;;;10.20;99.90;;;;;;6071057;23;20463;-68
2021/05/03 10:30:27;;;;;;;2.93;1.70;;;10.30;99.90;;;;;;6081422;23;20744;-68
2021/05/03 10:33:02;;;;;;;2.17;1.40;;;10.40;99.90;;;;;;6072451;23;20431;-69
2021/05/03 10:35:30;;;;;;;2.73;1.80;;;10.50;99.90;;;;;;6072360;23;20906;-68
2021/05/03 10:37:57;;;;;;;3.30;1.60;;;10.40;99.90;;;;;;6072589;23;20495;-68
2021/05/03 10:40:49;;;;;;;2.43;1.70;;;10.30;99.90;;;;;;6082375;23;20416;-68
2021/05/03 10:43:18;;;;;;;2.83;1.50;;;10.20;99.90;;;;;;6073045;23;20747;-67
2021/05/03 10:45:55;;;;;;;3.37;1.80;;;10.40;99.90;;;;;;6072548;23;20726;-67
2021/05/03 10:48:39;;;;;;;2.63;1.33;;;10.50;99.90;;;;;;6072718;23;20405;-67
2021/05/03 10:51:09;;;;;;;2.73;1.60;;;10.80;99.90;;;;;;6072806;23;20428;-67
2021/05/03 10:53:38;;;;;;;1.37;1.27;;;10.90;99.90;;;;;;6073015;23;20942;-67
2021/05/03 10:56:06;;;;;;;2.47;1.63;;;10.80;99.90;;;;;;6072646;23;20430;-69
2021/05/03 10:59:08;;;;;;;2.27;1.57;;;10.80;99.90;;;;;;6072823;23;20479;-68
2021/05/03 11:02:08;;;;;;;25.73;2.30;;;11.00;99.90;;;;;;6072934;23;20412;-68
2021/05/03 11:04:36;;;;;;;3.57;1.40;;;11.20;99.90;;;;;;6072231;23;20892;-67
2021/05/03 11:07:10;;;;;;;2.23;1.47;;;11.30;99.90;;;;;;6073007;23;20483;-67
2021/05/03 11:09:41;;;;;;;1.47;1.20;;;11.50;99.90;;;;;;6082578;23;20405;-67
2021/05/03 11:12:31;;;;;;;2.27;1.60;;;11.50;99.90;;;;;;6082713;23;20937;-66
2021/05/03 11:15:21;;;;;;;2.37;1.40;;;11.50;99.90;;;;;;6072995;23;20455;-67
2021/05/03 11:18:24;;;;;;;1.30;1.20;;;11.50;99.90;;;;;;6073305;23;20405;-72
2021/05/03 11:21:04;;;;;;;1.57;1.40;;;11.30;99.90;;;;;;6082330;23;20403;-70
2021/05/03 11:23:34;;;;;;;2.27;1.53;;;11.20;99.90;;;;;;6082226;23;20436;-70
2021/05/03 11:26:00;;;;;;;1.63;1.53;;;11.10;99.90;;;;;;6086458;23;20420;-71
2021/05/03 11:28:31;;;;;;;4.70;1.67;;;11.10;99.90;;;;;;6086926;23;20487;-70
2021/05/03 11:31:00;;;;;;;1.50;1.30;;;11.10;99.90;;;;;;6087915;23;20429;-68
2021/05/03 11:33:35;;;;;;;2.10;1.47;;;11.10;99.90;;;;;;6086705;23;20451;-69
2021/05/03 11:36:12;;;;;;;1.30;1.17;;;11.60;99.90;;;;;;6086265;23;20488;-68
2021/05/03 11:38:57;;;;;;;1.80;1.30;;;12.20;99.90;;;;;;6087285;23;20476;-69
2021/05/03 11:41:36;;;;;;;3.20;1.73;;;12.50;99.90;;;;;;6087381;23;20412;-74
2021/05/03 11:44:14;;;;;;;3.23;1.60;;;12.50;99.90;;;;;;6089232;23;20415;-70
2021/05/03 11:46:40;;;;;;;2.20;1.30;;;12.30;99.90;;;;;;6085934;23;20408;-69
2021/05/03 11:49:16;;;;;;;1.87;1.13;;;12.50;99.90;;;;;;6087563;23;20420;-70
2021/05/03 11:51:46;;;;;;;2.77;1.33;;;12.10;99.90;;;;;;6090295;23;20460;-69
2021/05/03 11:54:33;;;;;;;3.40;1.30;;;11.70;99.90;;;;;;6089873;23;20459;-70
2021/05/03 11:57:02;;;;;;;2.70;1.13;;;11.40;99.90;;;;;;6089790;23;20460;-69
2021/05/03 11:59:32;;;;;;;1.37;1.27;;;11.40;99.90;;;;;;6087768;23;20420;-69
2021/05/03 12:02:00;;;;;;;1.30;1.10;;;11.30;99.90;;;;;;6088000;23;20444;-70
2021/05/03 12:04:34;;;;;;;2.03;1.77;;;11.40;99.90;;;;;;6086514;23;20420;-68
2021/05/03 12:07:14;;;;;;;2.07;1.70;;;11.50;99.90;;;;;;6087658;23;20440;-69
2021/05/03 12:09:41;;;;;;;1.40;1.20;;;11.60;99.90;;;;;;6087730;23;20416;-69
2021/05/03 12:12:07;;;;;;;1.97;1.50;;;11.70;99.90;;;;;;6085987;23;20444;-69
2021/05/03 12:14:45;;;;;;;3.73;1.50;;;11.80;99.90;;;;;;6086400;23;20417;-68
2021/05/03 12:17:21;;;;;;;2.10;1.50;;;11.70;99.90;;;;;;6086682;23;20420;-69
2021/05/03 12:19:48;;;;;;;1.40;1.03;;;11.60;99.90;;;;;;6086177;23;20400;-69
2021/05/03 12:22:14;;;;;;;2.40;1.50;;;11.70;99.90;;;;;;6086896;23;20423;-69
2021/05/03 12:24:44;;;;;;;3.03;1.20;;;11.70;99.90;;;;;;6084179;23;20524;-70
2021/05/03 12:27:11;;;;;;;2.70;1.13;;;11.70;99.90;;;;;;6086035;23;20426;-70
2021/05/03 12:29:40;;;;;;;1.63;1.23;;;11.70;99.90;;;;;;6096553;23;20482;-69
2021/05/03 12:32:15;;;;;;;1.70;1.20;;;11.60;99.90;;;;;;6087606;23;20488;-68
2021/05/03 12:34:46;;;;;;;6.87;1.30;;;11.50;99.90;;;;;;6087475;23;20463;-69
2021/05/03 12:37:20;;;;;;;1.20;1.10;;;11.50;99.90;;;;;;6086034;23;20401;-69
2021/05/03 12:40:09;;;;;;;1.50;1.30;;;11.50;99.90;;;;;;6087098;23;20551;-68
2021/05/03 12:42:40;;;;;;;1.70;1.37;;;11.60;99.90;;;;;;6083855;23;20476;-69
2021/05/03 12:45:22;;;;;;;1.90;1.30;;;11.70;99.90;;;;;;6083142;23;20427;-69
2021/05/03 12:48:01;;;;;;;2.80;1.40;;;11.90;99.90;;;;;;6083247;23;20404;-69
2021/05/03 12:50:48;;;;;;;1.93;1.30;;;11.90;99.90;;;;;;6083754;23;20413;-69
2021/05/03 12:53:20;;;;;;;2.87;1.60;;;12.00;99.90;;;;;;6093747;23;20420;-69
2021/05/03 12:56:15;;;;;;;2.40;1.60;;;11.80;99.90;;;;;;6083852;23;20443;-69
2021/05/03 12:58:57;;;;;;;5.10;1.43;;;11.60;99.90;;;;;;6088278;23;20397;-69
2021/05/03 13:01:33;;;;;;;1.83;1.50;;;11.30;99.90;;;;;;6087320;23;20559;-69
2021/05/03 13:04:10;;;;;;;3.17;1.40;;;11.00;99.90;;;;;;6087266;23;20436;-68
2021/05/03 13:07:02;;;;;;;2.20;2.00;;;11.00;99.90;;;;;;6084781;23;20416;-69
2021/05/03 13:09:41;;;;;;;2.90;1.70;;;10.90;99.90;;;;;;6085064;23;20716;-69
2021/05/03 13:29:05;;;;;;;2.40;2.20;;;10.80;99.90;;;;;;6083038;23;20456;-69
2021/05/03 13:31:33;;;;;;;6.13;2.10;;;10.80;99.90;;;;;;6084082;23;20455;-72